Costa Luminosa — ICGU — position and weather

sailwx.info

Track history (hours):
 
Tides and Currents Weather Stations Pressure Air Temp Water Temp Dewpoint Dewpoint Depression Visibility Wind Speed Wind Dir Waves Ship Positions

Costa Luminosa

Last reported at 2019-Mar-12 16:25 UTC. Time now 2019-Mar-22 11:58 UTC.
Position S 26°07' E 153°29'.
Warning: this ship's position is 9 days out of date.

Length 294 m; draft 8.1 m.

Type: Passenger vessel. MMSI: 247257900.

Date/timePositionNaut miles runAvg speedWind from/ knotsBaromVisibWave heightAir tempDewpointWater temp
2019-Mar-12 16:25S 26°07' E 153°29'1216.1
2019-Mar-12 15:42S 26°18' E 153°27'313.5
2019-Mar-12 15:31S 26°21' E 153°27'4 8.9
2019-Mar-12 15:01S 26°25' E 153°25'4 8.1
2019-Mar-12 14:31S 26°29' E 153°24'713.8
2019-Mar-12 14:01S 26°36' E 153°22'917.6
2019-Mar-12 13:30S 26°41' E 153°14'711.4
2019-Mar-12 12:54S 26°47' E 153°12'512.3
2019-Mar-12 12:30S 26°51' E 153°09'815.9
2019-Mar-12 12:00S 26°58' E 153°14'714.2
2019-Mar-12 11:31S 27°04' E 153°18'815.1
2019-Mar-12 11:01S 27°11' E 153°21'713.9
2019-Mar-12 10:30S 27°17' E 153°15'612.8
2019-Mar-12 10:00S 27°21' E 153°11'2 3.4
2019-Mar-12 09:30S 27°23' E 153°10'0 0.0
2019-Mar-12 09:00S 27°23' E 153°10'0 0.0
2019-Mar-12 08:30S 27°23' E 153°10'0 0.0
2019-Mar-12 08:00S 27°23' E 153°10'0 0.0
2019-Mar-12 07:30S 27°23' E 153°10'0 0.0
2019-Mar-12 07:00S 27°23' E 153°10'0 0.0
2019-Mar-12 06:30S 27°23' E 153°10'0 0.0
2019-Mar-12 06:00S 27°23' E 153°10'0 0.0
2019-Mar-12 05:30S 27°23' E 153°10'0 0.0
2019-Mar-12 05:00S 27°23' E 153°10'0 0.0
2019-Mar-12 04:30S 27°23' E 153°10'0 0.0
2019-Mar-12 04:00S 27°23' E 153°10'0 0.0
2019-Mar-12 03:30S 27°23' E 153°10'0 0.0
2019-Mar-12 03:00S 27°23' E 153°10'0 0.0
2019-Mar-12 02:30S 27°23' E 153°10'0 0.1
2019-Mar-12 02:12S 27°23' E 153°10'0 0.1
2019-Mar-12 02:00S 27°23' E 153°10'0 0.4
2019-Mar-12 01:57S 27°23' E 153°10'0 0.0
2019-Mar-12 01:30S 27°23' E 153°10'0 4.3
2019-Mar-12 01:30S 27°23' E 153°10'0 0.0
2019-Mar-12 01:00S 27°23' E 153°10'0 0.0
2019-Mar-12 00:30S 27°23' E 153°10'0 0.0
2019-Mar-12 00:00S 27°23' E 153°10'0 0.0
2019-Mar-11 23:30S 27°23' E 153°10'0 0.0
2019-Mar-11 23:00S 27°23' E 153°10'0 0.0
2019-Mar-11 22:30S 27°23' E 153°10'0 0.0
2019-Mar-11 22:00S 27°23' E 153°10'0 0.0
2019-Mar-11 21:30S 27°23' E 153°10'0 0.1
2019-Mar-11 21:00S 27°23' E 153°10'2 3.4
2019-Mar-11 20:30S 27°21' E 153°11'612.7
2019-Mar-11 20:01S 27°17' E 153°15'815.3
2019-Mar-11 19:31S 27°11' E 153°21'815.1
2019-Mar-11 19:01S 27°04' E 153°18'612.9
2019-Mar-11 18:30S 26°58' E 153°14'714.8
2019-Mar-11 18:00S 26°52' E 153°10'612.9
2019-Mar-11 17:31S 26°46' E 153°12'4 8.7
2019-Mar-11 17:00S 26°43' E 153°15'713.7
2019-Mar-11 16:30S 26°46' E 153°22'816.1
2019-Mar-11 16:01S 26°52' E 153°28'918.1
2019-Mar-11 15:30S 26°59' E 153°35'918.2
2019-Mar-11 15:01S 27°07' E 153°39'917.7
2019-Mar-11 14:31S 27°15' E 153°42'917.0
2019-Mar-11 14:01S 27°23' E 153°44'816.5
2019-Mar-11 13:31S 27°32' E 153°45'816.3
2019-Mar-11 13:01S 27°40' E 153°46'816.2
2019-Mar-11 12:31S 27°48' E 153°47'816.5
2019-Mar-11 12:01S 27°56' E 153°48'816.8
2019-Mar-11 11:31S 28°04' E 153°49'816.8
2019-Mar-11 11:00S 28°13' E 153°50'816.8
2019-Mar-11 10:30S 28°21' E 153°51'3516.5
2019-Mar-11 08:24S 28°56' E 153°54'20219.1
2019-Mar-10 21:51S 32°13' E 153°08'719.9
2019-Mar-10 21:30S 32°20' E 153°04'1320.9
2019-Mar-10 20:52S 32°31' E 152°58'821.6
2019-Mar-10 20:30S 32°39' E 152°54'1121.0
2019-Mar-10 20:00S 32°48' E 152°49'1020.3
2019-Mar-10 19:30S 32°57' E 152°43'1019.8
2019-Mar-10 19:00S 33°06' E 152°39'1019.9
2019-Mar-10 18:30S 33°15' E 152°34'1021.1
2019-Mar-10 18:01S 33°25' E 152°28'1122.9
2019-Mar-10 17:31S 33°35' E 152°23'1223.3
2019-Mar-10 17:01S 33°46' E 152°17'1223.6
2019-Mar-10 16:31S 33°57' E 152°11'1223.4
2019-Mar-10 16:01S 34°07' E 152°05'1122.6
2019-Mar-10 15:31S 34°17' E 151°59'1122.1
2019-Mar-10 15:01S 34°28' E 151°53'1121.9
2019-Mar-10 14:30S 34°38' E 151°48'1121.7
2019-Mar-10 14:00S 34°47' E 151°42'1121.0
2019-Mar-10 13:30S 34°57' E 151°37'1020.4
2019-Mar-10 13:01S 35°06' E 151°32'1019.8
2019-Mar-10 12:31S 35°15' E 151°27'1019.5
2019-Mar-10 12:01S 35°24' E 151°22'1019.2
2019-Mar-10 11:29S 35°33' E 151°16'918.9
2019-Mar-10 11:00S 35°41' E 151°12'918.7
2019-Mar-10 10:31S 35°50' E 151°07'2317.6
2019-Mar-10 09:11S 36°11' E 150°55'316.0
2019-Mar-10 09:01S 36°13' E 150°53'1215.5
2019-Mar-10 08:16S 36°24' E 150°47'12716.9
2019-Mar-10 00:47S 38°11' E 149°23'1018.8
2019-Mar-10 00:16S 38°17' E 149°13'718.5
2019-Mar-09 23:54S 38°21' E 149°06'1018.7
2019-Mar-09 23:23S 38°27' E 148°56'818.7
2019-Mar-09 22:56S 38°32' E 148°48'1218.9
2019-Mar-09 22:19S 38°38' E 148°35'1218.9
2019-Mar-09 21:42S 38°44' E 148°22'819.5
2019-Mar-09 21:19S 38°47' E 148°13'718.8
2019-Mar-09 20:56S 38°49' E 148°05'1419.4
2019-Mar-09 20:11S 38°53' E 147°47'719.3
2019-Mar-09 19:49S 38°54' E 147°38'819.7
2019-Mar-09 19:24S 38°56' E 147°27'1019.7
2019-Mar-09 18:55S 38°59' E 147°15'920.0
2019-Mar-09 18:29S 39°02' E 147°05'3019.5
2019-Mar-09 16:58S 39°16' E 146°31'50 1.5
2019-Mar-08 07:35S 38°56' E 147°30'218.0
2019-Mar-08 07:30S 38°56' E 147°32'1117.7
2019-Mar-08 06:54S 38°54' E 147°46'3718.0
2019-Mar-08 04:52S 38°48' E 148°32'1618.9
2019-Mar-08 03:59S 38°45' E 148°53'918.5
2019-Mar-08 03:29S 38°44' E 149°05'2918.2
2019-Mar-08 01:55S 38°39' E 149°41'1918.6
2019-Mar-08 00:55S 38°36' E 150°05'919.3
2019-Mar-08 00:28S 38°35' E 150°16'  
2019-Mar-05 08:28S 36°23' E 174°59'613.7
2019-Mar-05 08:00S 36°29' E 174°59'713.9
2019-Mar-05 07:30S 36°36' E 174°57'713.7
2019-Mar-05 07:00S 36°42' E 174°53'611.5
2019-Mar-05 06:29S 36°47' E 174°48'4 7.7
2019-Mar-05 06:00S 36°50' E 174°47'1 1.8
2019-Mar-05 05:31S 36°51' E 174°46'0 0.0
2019-Mar-05 05:01S 36°51' E 174°46'0 0.0
2019-Mar-05 04:31S 36°51' E 174°46'0 0.0
2019-Mar-05 03:58S 36°51' E 174°46'0 0.0
2019-Mar-05 03:31S 36°51' E 174°46'0 0.0
2019-Mar-05 03:01S 36°51' E 174°46'0 0.0
2019-Mar-05 02:31S 36°51' E 174°46'0 0.0
2019-Mar-05 02:01S 36°51' E 174°46'0 0.0
2019-Mar-05 01:31S 36°51' E 174°46'0 0.0
2019-Mar-05 01:01S 36°51' E 174°46'0 0.0
2019-Mar-05 00:31S 36°51' E 174°46'0 0.0
2019-Mar-05 00:00S 36°51' E 174°46'0 0.0
2019-Mar-04 23:28S 36°51' E 174°46'0 0.0
2019-Mar-04 23:01S 36°51' E 174°46'0 0.0
2019-Mar-04 22:31S 36°51' E 174°46'0 0.0
2019-Mar-04 21:58S 36°51' E 174°46'0 0.0
2019-Mar-04 21:30S 36°51' E 174°46'0 0.0
2019-Mar-04 21:01S 36°51' E 174°46'0 0.0
2019-Mar-04 20:31S 36°51' E 174°46'0 0.0
2019-Mar-04 20:01S 36°51' E 174°46'0 0.0
2019-Mar-04 19:31S 36°51' E 174°46'0 0.0
2019-Mar-04 19:01S 36°51' E 174°46'0 0.0
2019-Mar-04 18:30S 36°51' E 174°46'0 0.4
2019-Mar-04 18:00S 36°50' E 174°46'3 6.4
2019-Mar-04 17:30S 36°49' E 174°50'510.9
2019-Mar-04 17:00S 36°44' E 174°51'510.1
2019-Mar-04 16:30S 36°40' E 174°55'510.1
2019-Mar-04 16:00S 36°36' E 174°59'5 9.9
2019-Mar-04 15:30S 36°33' E 175°04'510.1
2019-Mar-04 15:00S 36°30' E 175°09'510.5
2019-Mar-04 14:30S 36°27' E 175°14'610.3
2019-Mar-04 13:57S 36°23' E 175°19'8 9.0
2019-Mar-04 13:01S 36°24' E 175°30'0 9.7
2019-Mar-04 13:00S 36°24' E 175°30'1013.9
2019-Mar-04 12:16S 36°28' E 175°41'413.6
2019-Mar-04 11:57S 36°30' E 175°46'613.6
2019-Mar-04 11:30S 36°32' E 175°53'814.1
2019-Mar-04 10:58S 36°35' E 176°02'614.0
2019-Mar-04 10:30S 36°38' E 176°09'714.2
2019-Mar-04 10:00S 36°41' E 176°18'714.2
2019-Mar-04 09:29S 36°44' E 176°26'713.7
2019-Mar-04 09:00S 36°47' E 176°33'714.0
2019-Mar-04 08:30S 36°54' E 176°33'714.1
2019-Mar-04 08:00S 37°00' E 176°30'714.1
2019-Mar-04 07:30S 37°07' E 176°27'714.1
2019-Mar-04 07:01S 37°14' E 176°24'713.9
2019-Mar-04 06:30S 37°20' E 176°20'713.5
2019-Mar-04 06:00S 37°26' E 176°17'612.9
2019-Mar-04 05:30S 37°32' E 176°15'611.1
2019-Mar-04 05:00S 37°37' E 176°10'2 3.4
2019-Mar-04 04:30S 37°38' E 176°11'0 0.0
2019-Mar-04 04:00S 37°38' E 176°11'0 0.0
2019-Mar-04 03:29S 37°38' E 176°11'0 0.1
2019-Mar-04 03:01S 37°39' E 176°11'0 0.4
2019-Mar-04 03:00S 37°39' E 176°11'0 1.7
2019-Mar-04 02:59S 37°38' E 176°11'0 0.0
2019-Mar-04 02:29S 37°38' E 176°11'0 0.0
2019-Mar-04 01:59S 37°38' E 176°11'0 0.0
2019-Mar-04 01:29S 37°38' E 176°11'0 0.8
2019-Mar-04 01:22S 37°39' E 176°11'0 0.2
2019-Mar-04 00:59S 37°38' E 176°11'0 0.4
2019-Mar-04 00:40S 37°39' E 176°11'0 0.6
2019-Mar-04 00:29S 37°38' E 176°11'0 0.0
2019-Mar-03 23:59S 37°38' E 176°11'0 0.0
2019-Mar-03 23:29S 37°38' E 176°11'0 0.0
2019-Mar-03 22:59S 37°38' E 176°11'0 0.1
2019-Mar-03 22:43S 37°39' E 176°11'0 0.1
2019-Mar-03 22:29S 37°38' E 176°11'0 4.3
2019-Mar-03 22:28S 37°39' E 176°11'0 0.1
2019-Mar-03 21:59S 37°38' E 176°11'017.3
2019-Mar-03 21:58S 37°39' E 176°11'0 6.8
2019-Mar-03 21:58S 37°39' E 176°11'0 1.7
2019-Mar-03 21:56S 37°39' E 176°11'0 0.2
2019-Mar-03 21:29S 37°38' E 176°11'0 0.0
2019-Mar-03 20:59S 37°38' E 176°11'0 0.0
2019-Mar-03 20:29S 37°38' E 176°11'0 0.0
2019-Mar-03 19:59S 37°38' E 176°11'0 0.0
2019-Mar-03 19:29S 37°38' E 176°11'0 0.0
2019-Mar-03 18:59S 37°38' E 176°11'0 0.0
2019-Mar-03 18:29S 37°38' E 176°11'0 0.0
2019-Mar-03 17:59S 37°38' E 176°11'0 0.0
2019-Mar-03 17:30S 37°38' E 176°11'2 3.4
2019-Mar-03 17:00S 37°37' E 176°10'5 9.6
2019-Mar-03 16:30S 37°33' E 176°14'612.7
2019-Mar-03 16:00S 37°30' E 176°21'816.6
2019-Mar-03 15:30S 37°26' E 176°30'816.6
2019-Mar-03 15:00S 37°22' E 176°39'816.6
2019-Mar-03 14:30S 37°19' E 176°49'816.8
2019-Mar-03 14:00S 37°16' E 176°59'816.7
2019-Mar-03 13:30S 37°12' E 177°09'816.8
2019-Mar-03 13:00S 37°10' E 177°18'816.5
2019-Mar-03 12:30S 37°07' E 177°28'916.4
2019-Mar-03 11:57S 37°04' E 177°39'1318.6
2019-Mar-03 11:16S 36°59' E 177°54'618.4
2019-Mar-03 10:58S 36°57' E 178°00'  
Track history (hours):
 
Tides and Currents Weather Stations Pressure Air Temp Water Temp Dewpoint Dewpoint Depression Visibility Wind Speed Wind Dir Waves Ship Positions

Costa Luminosa

Last reported at 2019-Mar-12 16:25 UTC. Time now 2019-Mar-22 11:58 UTC.
Position S 26°07' E 153°29'.
Warning: this ship's position is 9 days out of date.

Length 294 m; draft 8.1 m.

Type: Passenger vessel. MMSI: 247257900.

Date/timePositionNaut miles runAvg speedWind from/ knotsBaromVisibWave heightAir tempDewpointWater temp
2019-Mar-12 16:25S 26°07' E 153°29'1216.1
2019-Mar-12 15:42S 26°18' E 153°27'313.5
2019-Mar-12 15:31S 26°21' E 153°27'4 8.9
2019-Mar-12 15:01S 26°25' E 153°25'4 8.1
2019-Mar-12 14:31S 26°29' E 153°24'713.8
2019-Mar-12 14:01S 26°36' E 153°22'917.6
2019-Mar-12 13:30S 26°41' E 153°14'711.4
2019-Mar-12 12:54S 26°47' E 153°12'512.3
2019-Mar-12 12:30S 26°51' E 153°09'815.9
2019-Mar-12 12:00S 26°58' E 153°14'714.2
2019-Mar-12 11:31S 27°04' E 153°18'815.1
2019-Mar-12 11:01S 27°11' E 153°21'713.9
2019-Mar-12 10:30S 27°17' E 153°15'612.8
2019-Mar-12 10:00S 27°21' E 153°11'2 3.4
2019-Mar-12 09:30S 27°23' E 153°10'0 0.0
2019-Mar-12 09:00S 27°23' E 153°10'0 0.0
2019-Mar-12 08:30S 27°23' E 153°10'0 0.0
2019-Mar-12 08:00S 27°23' E 153°10'0 0.0
2019-Mar-12 07:30S 27°23' E 153°10'0 0.0
2019-Mar-12 07:00S 27°23' E 153°10'0 0.0
2019-Mar-12 06:30S 27°23' E 153°10'0 0.0
2019-Mar-12 06:00S 27°23' E 153°10'0 0.0
2019-Mar-12 05:30S 27°23' E 153°10'0 0.0
2019-Mar-12 05:00S 27°23' E 153°10'0 0.0
2019-Mar-12 04:30S 27°23' E 153°10'0 0.0
2019-Mar-12 04:00S 27°23' E 153°10'0 0.0
2019-Mar-12 03:30S 27°23' E 153°10'0 0.0
2019-Mar-12 03:00S 27°23' E 153°10'0 0.0
2019-Mar-12 02:30S 27°23' E 153°10'0 0.1
2019-Mar-12 02:12S 27°23' E 153°10'0 0.1
2019-Mar-12 02:00S 27°23' E 153°10'0 0.4
2019-Mar-12 01:57S 27°23' E 153°10'0 0.0
2019-Mar-12 01:30S 27°23' E 153°10'0 4.3
2019-Mar-12 01:30S 27°23' E 153°10'0 0.0
2019-Mar-12 01:00S 27°23' E 153°10'0 0.0
2019-Mar-12 00:30S 27°23' E 153°10'0 0.0
2019-Mar-12 00:00S 27°23' E 153°10'0 0.0
2019-Mar-11 23:30S 27°23' E 153°10'0 0.0
2019-Mar-11 23:00S 27°23' E 153°10'0 0.0
2019-Mar-11 22:30S 27°23' E 153°10'0 0.0
2019-Mar-11 22:00S 27°23' E 153°10'0 0.0
2019-Mar-11 21:30S 27°23' E 153°10'0 0.1
2019-Mar-11 21:00S 27°23' E 153°10'2 3.4
2019-Mar-11 20:30S 27°21' E 153°11'612.7
2019-Mar-11 20:01S 27°17' E 153°15'815.3
2019-Mar-11 19:31S 27°11' E 153°21'815.1
2019-Mar-11 19:01S 27°04' E 153°18'612.9
2019-Mar-11 18:30S 26°58' E 153°14'714.8
2019-Mar-11 18:00S 26°52' E 153°10'612.9
2019-Mar-11 17:31S 26°46' E 153°12'4 8.7
2019-Mar-11 17:00S 26°43' E 153°15'713.7
2019-Mar-11 16:30S 26°46' E 153°22'816.1
2019-Mar-11 16:01S 26°52' E 153°28'918.1
2019-Mar-11 15:30S 26°59' E 153°35'918.2
2019-Mar-11 15:01S 27°07' E 153°39'917.7
2019-Mar-11 14:31S 27°15' E 153°42'917.0
2019-Mar-11 14:01S 27°23' E 153°44'816.5
2019-Mar-11 13:31S 27°32' E 153°45'816.3
2019-Mar-11 13:01S 27°40' E 153°46'816.2
2019-Mar-11 12:31S 27°48' E 153°47'816.5
2019-Mar-11 12:01S 27°56' E 153°48'816.8
2019-Mar-11 11:31S 28°04' E 153°49'816.8
2019-Mar-11 11:00S 28°13' E 153°50'816.8
2019-Mar-11 10:30S 28°21' E 153°51'3516.5
2019-Mar-11 08:24S 28°56' E 153°54'20219.1
2019-Mar-10 21:51S 32°13' E 153°08'719.9
2019-Mar-10 21:30S 32°20' E 153°04'1320.9
2019-Mar-10 20:52S 32°31' E 152°58'821.6
2019-Mar-10 20:30S 32°39' E 152°54'1121.0
2019-Mar-10 20:00S 32°48' E 152°49'1020.3
2019-Mar-10 19:30S 32°57' E 152°43'1019.8
2019-Mar-10 19:00S 33°06' E 152°39'1019.9
2019-Mar-10 18:30S 33°15' E 152°34'1021.1
2019-Mar-10 18:01S 33°25' E 152°28'1122.9
2019-Mar-10 17:31S 33°35' E 152°23'1223.3
2019-Mar-10 17:01S 33°46' E 152°17'1223.6
2019-Mar-10 16:31S 33°57' E 152°11'1223.4
2019-Mar-10 16:01S 34°07' E 152°05'1122.6
2019-Mar-10 15:31S 34°17' E 151°59'1122.1
2019-Mar-10 15:01S 34°28' E 151°53'1121.9
2019-Mar-10 14:30S 34°38' E 151°48'1121.7
2019-Mar-10 14:00S 34°47' E 151°42'1121.0
2019-Mar-10 13:30S 34°57' E 151°37'1020.4
2019-Mar-10 13:01S 35°06' E 151°32'1019.8
2019-Mar-10 12:31S 35°15' E 151°27'1019.5
2019-Mar-10 12:01S 35°24' E 151°22'1019.2
2019-Mar-10 11:29S 35°33' E 151°16'918.9
2019-Mar-10 11:00S 35°41' E 151°12'918.7
2019-Mar-10 10:31S 35°50' E 151°07'2317.6
2019-Mar-10 09:11S 36°11' E 150°55'316.0
2019-Mar-10 09:01S 36°13' E 150°53'1215.5
2019-Mar-10 08:16S 36°24' E 150°47'12716.9
2019-Mar-10 00:47S 38°11' E 149°23'1018.8
2019-Mar-10 00:16S 38°17' E 149°13'718.5
2019-Mar-09 23:54S 38°21' E 149°06'1018.7
2019-Mar-09 23:23S 38°27' E 148°56'818.7
2019-Mar-09 22:56S 38°32' E 148°48'1218.9
2019-Mar-09 22:19S 38°38' E 148°35'1218.9
2019-Mar-09 21:42S 38°44' E 148°22'819.5
2019-Mar-09 21:19S 38°47' E 148°13'718.8
2019-Mar-09 20:56S 38°49' E 148°05'1419.4
2019-Mar-09 20:11S 38°53' E 147°47'719.3
2019-Mar-09 19:49S 38°54' E 147°38'819.7
2019-Mar-09 19:24S 38°56' E 147°27'1019.7
2019-Mar-09 18:55S 38°59' E 147°15'920.0
2019-Mar-09 18:29S 39°02' E 147°05'3019.5
2019-Mar-09 16:58S 39°16' E 146°31'50 1.5
2019-Mar-08 07:35S 38°56' E 147°30'218.0
2019-Mar-08 07:30S 38°56' E 147°32'1117.7
2019-Mar-08 06:54S 38°54' E 147°46'3718.0
2019-Mar-08 04:52S 38°48' E 148°32'1618.9
2019-Mar-08 03:59S 38°45' E 148°53'918.5
2019-Mar-08 03:29S 38°44' E 149°05'2918.2
2019-Mar-08 01:55S 38°39' E 149°41'1918.6
2019-Mar-08 00:55S 38°36' E 150°05'919.3
2019-Mar-08 00:28S 38°35' E 150°16'  
2019-Mar-05 08:28S 36°23' E 174°59'613.7
2019-Mar-05 08:00S 36°29' E 174°59'713.9
2019-Mar-05 07:30S 36°36' E 174°57'713.7
2019-Mar-05 07:00S 36°42' E 174°53'611.5
2019-Mar-05 06:29S 36°47' E 174°48'4 7.7
2019-Mar-05 06:00S 36°50' E 174°47'1 1.8
2019-Mar-05 05:31S 36°51' E 174°46'0 0.0
2019-Mar-05 05:01S 36°51' E 174°46'0 0.0
2019-Mar-05 04:31S 36°51' E 174°46'0 0.0
2019-Mar-05 03:58S 36°51' E 174°46'0 0.0
2019-Mar-05 03:31S 36°51' E 174°46'0 0.0
2019-Mar-05 03:01S 36°51' E 174°46'0 0.0
2019-Mar-05 02:31S 36°51' E 174°46'0 0.0
2019-Mar-05 02:01S 36°51' E 174°46'0 0.0
2019-Mar-05 01:31S 36°51' E 174°46'0 0.0
2019-Mar-05 01:01S 36°51' E 174°46'0 0.0
2019-Mar-05 00:31S 36°51' E 174°46'0 0.0
2019-Mar-05 00:00S 36°51' E 174°46'0 0.0
2019-Mar-04 23:28S 36°51' E 174°46'0 0.0
2019-Mar-04 23:01S 36°51' E 174°46'0 0.0
2019-Mar-04 22:31S 36°51' E 174°46'0 0.0
2019-Mar-04 21:58S 36°51' E 174°46'0 0.0
2019-Mar-04 21:30S 36°51' E 174°46'0 0.0
2019-Mar-04 21:01S 36°51' E 174°46'0 0.0
2019-Mar-04 20:31S 36°51' E 174°46'0 0.0
2019-Mar-04 20:01S 36°51' E 174°46'0 0.0
2019-Mar-04 19:31S 36°51' E 174°46'0 0.0
2019-Mar-04 19:01S 36°51' E 174°46'0 0.0
2019-Mar-04 18:30S 36°51' E 174°46'0 0.4
2019-Mar-04 18:00S 36°50' E 174°46'3 6.4
2019-Mar-04 17:30S 36°49' E 174°50'510.9
2019-Mar-04 17:00S 36°44' E 174°51'510.1
2019-Mar-04 16:30S 36°40' E 174°55'510.1
2019-Mar-04 16:00S 36°36' E 174°59'5 9.9
2019-Mar-04 15:30S 36°33' E 175°04'510.1
2019-Mar-04 15:00S 36°30' E 175°09'510.5
2019-Mar-04 14:30S 36°27' E 175°14'610.3
2019-Mar-04 13:57S 36°23' E 175°19'8 9.0
2019-Mar-04 13:01S 36°24' E 175°30'0 9.7
2019-Mar-04 13:00S 36°24' E 175°30'1013.9
2019-Mar-04 12:16S 36°28' E 175°41'413.6
2019-Mar-04 11:57S 36°30' E 175°46'613.6
2019-Mar-04 11:30S 36°32' E 175°53'814.1
2019-Mar-04 10:58S 36°35' E 176°02'614.0
2019-Mar-04 10:30S 36°38' E 176°09'714.2
2019-Mar-04 10:00S 36°41' E 176°18'714.2
2019-Mar-04 09:29S 36°44' E 176°26'713.7
2019-Mar-04 09:00S 36°47' E 176°33'714.0
2019-Mar-04 08:30S 36°54' E 176°33'714.1
2019-Mar-04 08:00S 37°00' E 176°30'714.1
2019-Mar-04 07:30S 37°07' E 176°27'714.1
2019-Mar-04 07:01S 37°14' E 176°24'713.9
2019-Mar-04 06:30S 37°20' E 176°20'713.5
2019-Mar-04 06:00S 37°26' E 176°17'612.9
2019-Mar-04 05:30S 37°32' E 176°15'611.1
2019-Mar-04 05:00S 37°37' E 176°10'2 3.4
2019-Mar-04 04:30S 37°38' E 176°11'0 0.0
2019-Mar-04 04:00S 37°38' E 176°11'0 0.0
2019-Mar-04 03:29S 37°38' E 176°11'0 0.1
2019-Mar-04 03:01S 37°39' E 176°11'0 0.4
2019-Mar-04 03:00S 37°39' E 176°11'0 1.7
2019-Mar-04 02:59S 37°38' E 176°11'0 0.0
2019-Mar-04 02:29S 37°38' E 176°11'0 0.0
2019-Mar-04 01:59S 37°38' E 176°11'0 0.0
2019-Mar-04 01:29S 37°38' E 176°11'0 0.8
2019-Mar-04 01:22S 37°39' E 176°11'0 0.2
2019-Mar-04 00:59S 37°38' E 176°11'0 0.4
2019-Mar-04 00:40S 37°39' E 176°11'0 0.6
2019-Mar-04 00:29S 37°38' E 176°11'0 0.0
2019-Mar-03 23:59S 37°38' E 176°11'0 0.0
2019-Mar-03 23:29S 37°38' E 176°11'0 0.0
2019-Mar-03 22:59S 37°38' E 176°11'0 0.1
2019-Mar-03 22:43S 37°39' E 176°11'0 0.1
2019-Mar-03 22:29S 37°38' E 176°11'0 4.3
2019-Mar-03 22:28S 37°39' E 176°11'0 0.1
2019-Mar-03 21:59S 37°38' E 176°11'017.3
2019-Mar-03 21:58S 37°39' E 176°11'0 6.8
2019-Mar-03 21:58S 37°39' E 176°11'0 1.7
2019-Mar-03 21:56S 37°39' E 176°11'0 0.2
2019-Mar-03 21:29S 37°38' E 176°11'0 0.0
2019-Mar-03 20:59S 37°38' E 176°11'0 0.0
2019-Mar-03 20:29S 37°38' E 176°11'0 0.0
2019-Mar-03 19:59S 37°38' E 176°11'0 0.0
2019-Mar-03 19:29S 37°38' E 176°11'0 0.0
2019-Mar-03 18:59S 37°38' E 176°11'0 0.0
2019-Mar-03 18:29S 37°38' E 176°11'0 0.0
2019-Mar-03 17:59S 37°38' E 176°11'0 0.0
2019-Mar-03 17:30S 37°38' E 176°11'2 3.4
2019-Mar-03 17:00S 37°37' E 176°10'5 9.6
2019-Mar-03 16:30S 37°33' E 176°14'612.7
2019-Mar-03 16:00S 37°30' E 176°21'816.6
2019-Mar-03 15:30S 37°26' E 176°30'816.6
2019-Mar-03 15:00S 37°22' E 176°39'816.6
2019-Mar-03 14:30S 37°19' E 176°49'816.8
2019-Mar-03 14:00S 37°16' E 176°59'816.7
2019-Mar-03 13:30S 37°12' E 177°09'816.8
2019-Mar-03 13:00S 37°10' E 177°18'816.5
2019-Mar-03 12:30S 37°07' E 177°28'916.4
2019-Mar-03 11:57S 37°04' E 177°39'1318.6
2019-Mar-03 11:16S 36°59' E 177°54'618.4
2019-Mar-03 10:58S 36°57' E 178°00'  

Dump ship's entire track history